Time;durP1;ratioP1;P1;durP2;ratioP2;P2;SDS_P1;SDS_P2;PMS_P1;PMS_P2;Temp;Humidity;BMP_temperature;BMP_pressure;BME280_temperature;BME280_humidity;BME280_pressure;Samples;Min_cycle;Max_cycle;Signal;HPM_P1;HPM_P2
2022/11/02 00:00:46;;;;;;;8.73;3.63;;;13.50;99.90;;;;;;5028605;28;20287;-76
2022/11/02 00:03:13;;;;;;;8.18;3.97;;;13.50;99.90;;;;;;5024532;28;20224;-76
2022/11/02 00:05:40;;;;;;;9.07;3.03;;;13.50;99.90;;;;;;5024381;28;20301;-76
2022/11/02 00:08:07;;;;;;;16.85;10.00;;;13.50;99.90;;;;;;5029536;28;20214;-76
2022/11/02 00:10:34;;;;;;;11.65;4.28;;;13.50;99.90;;;;;;5022129;28;20289;-75
2022/11/02 00:13:01;;;;;;;8.15;3.95;;;13.50;99.90;;;;;;5029944;28;20580;-75
2022/11/02 00:15:32;;;;;;;19.95;6.18;;;13.50;99.90;;;;;;5037947;28;20287;-75
2022/11/02 00:18:04;;;;;;;10.98;5.05;;;13.50;99.90;;;;;;5034186;28;20209;-76
2022/11/02 00:20:31;;;;;;;16.92;3.17;;;13.50;99.90;;;;;;5031471;28;20283;-76
2022/11/02 00:23:00;;;;;;;9.93;2.38;;;13.40;99.90;;;;;;5034742;28;20331;-75
2022/11/02 00:25:28;;;;;;;7.88;3.05;;;13.40;99.90;;;;;;5031217;28;20279;-75
2022/11/02 00:27:55;;;;;;;14.68;3.45;;;13.30;99.90;;;;;;5020333;28;20292;-75
2022/11/02 00:30:22;;;;;;;8.77;2.80;;;13.30;99.90;;;;;;5030049;28;20287;-74
2022/11/02 00:32:50;;;;;;;12.88;3.90;;;13.30;99.90;;;;;;5026563;28;20598;-76
2022/11/02 00:35:18;;;;;;;11.15;4.10;;;13.20;99.90;;;;;;5033672;28;20200;-76
2022/11/02 00:37:45;;;;;;;6.90;2.72;;;13.30;99.90;;;;;;5019344;28;20292;-76
2022/11/02 00:40:13;;;;;;;9.45;2.88;;;13.30;99.90;;;;;;5020758;28;20288;-76
2022/11/02 00:42:40;;;;;;;11.40;3.42;;;13.30;99.90;;;;;;5032649;28;20224;-75
2022/11/02 00:45:08;;;;;;;7.60;2.63;;;13.40;99.90;;;;;;5024305;28;20385;-75
2022/11/02 00:47:35;;;;;;;6.30;3.45;;;13.40;99.90;;;;;;5028485;28;20237;-75
2022/11/02 00:50:02;;;;;;;6.43;2.67;;;13.50;99.90;;;;;;5029586;28;20652;-76
2022/11/02 00:52:30;;;;;;;15.60;3.65;;;13.50;99.90;;;;;;5037228;28;20252;-76
2022/11/02 00:54:57;;;;;;;20.38;2.92;;;13.50;99.90;;;;;;5042824;28;20231;-76
2022/11/02 00:57:24;;;;;;;8.40;1.77;;;13.50;99.90;;;;;;5036569;28;20232;-75
2022/11/02 00:59:57;;;;;;;13.45;2.65;;;13.60;99.90;;;;;;5035593;28;20611;-75
2022/11/02 01:02:24;;;;;;;11.68;2.45;;;13.60;99.90;;;;;;5033588;28;20711;-75
2022/11/02 01:04:51;;;;;;;12.98;3.20;;;13.60;99.90;;;;;;5020787;28;20232;-76
2022/11/02 01:07:18;;;;;;;12.68;3.35;;;13.60;99.90;;;;;;5016783;28;20240;-76
2022/11/02 01:09:46;;;;;;;11.10;2.88;;;13.60;99.90;;;;;;5028341;28;20193;-75
2022/11/02 01:12:13;;;;;;;6.68;2.97;;;13.60;99.90;;;;;;5028490;28;20226;-76
2022/11/02 01:14:40;;;;;;;8.85;1.80;;;13.60;99.90;;;;;;5034574;28;20385;-76
2022/11/02 01:17:07;;;;;;;8.38;3.17;;;13.60;99.90;;;;;;5023471;28;20205;-75
2022/11/02 01:19:33;;;;;;;6.35;2.50;;;13.70;99.90;;;;;;5033365;28;20296;-75
2022/11/02 01:22:00;;;;;;;7.72;2.75;;;13.70;99.90;;;;;;5030758;28;20315;-74
2022/11/02 01:24:28;;;;;;;6.10;2.40;;;13.70;99.90;;;;;;5048167;28;20348;-74
2022/11/02 01:27:04;;;;;;;9.32;2.58;;;13.70;99.90;;;;;;5025751;28;20269;-75
2022/11/02 01:29:31;;;;;;;4.70;1.52;;;13.70;99.90;;;;;;5030489;28;20251;-75
2022/11/02 01:31:58;;;;;;;7.43;2.78;;;13.70;99.90;;;;;;5032999;28;20216;-75
2022/11/02 01:34:25;;;;;;;9.57;2.47;;;13.60;99.90;;;;;;5028861;28;20211;-75
2022/11/02 01:36:53;;;;;;;6.88;2.13;;;13.70;99.90;;;;;;5030779;28;20203;-76
2022/11/02 01:39:20;;;;;;;5.53;2.58;;;13.60;99.90;;;;;;5018287;28;20655;-75
2022/11/02 01:41:51;;;;;;;13.77;3.53;;;13.70;99.90;;;;;;5027608;28;20232;-76
2022/11/02 01:44:29;;;;;;;7.43;2.15;;;13.70;99.90;;;;;;5026835;28;20215;-75
2022/11/02 01:47:01;;;;;;;8.02;1.98;;;13.60;99.90;;;;;;5001388;28;20258;-76
2022/11/02 01:49:31;;;;;;;9.57;2.10;;;13.60;99.90;;;;;;5028852;28;20298;-76
2022/11/02 01:52:05;;;;;;;7.53;3.13;;;13.60;99.90;;;;;;5025984;28;20243;-75
2022/11/02 01:54:37;;;;;;;6.95;2.50;;;13.60;99.90;;;;;;5028693;28;20658;-76
2022/11/02 01:57:08;;;;;;;11.73;2.95;;;13.50;99.90;;;;;;5031371;28;20577;-76
2022/11/02 01:59:40;;;;;;;10.32;2.13;;;13.60;99.90;;;;;;5026845;28;20228;-76
2022/11/02 02:02:16;;;;;;;6.25;1.90;;;13.50;99.90;;;;;;5030435;28;20225;-76
2022/11/02 02:04:47;;;;;;;5.90;2.47;;;13.50;99.90;;;;;;5023219;28;20280;-75
2022/11/02 02:07:15;;;;;;;10.27;2.45;;;13.50;99.90;;;;;;5032022;28;20236;-75
2022/11/02 02:09:42;;;;;;;6.50;1.75;;;13.50;99.90;;;;;;5032670;28;20250;-75
2022/11/02 02:12:09;;;;;;;14.80;3.15;;;13.40;99.90;;;;;;5031889;28;20226;-75
2022/11/02 02:14:37;;;;;;;4.35;1.60;;;13.50;99.90;;;;;;5031644;28;20207;-75
2022/11/02 02:17:19;;;;;;;7.30;2.00;;;13.60;99.90;;;;;;5035268;28;20220;-76
2022/11/02 02:19:53;;;;;;;6.30;2.08;;;13.60;99.90;;;;;;5020280;28;20295;-75
2022/11/02 02:22:48;;;;;;;8.70;2.60;;;13.60;99.90;;;;;;5023368;28;20695;-75
2022/11/02 02:25:26;;;;;;;6.78;2.10;;;13.50;99.90;;;;;;5009807;28;20221;-75
2022/11/02 02:28:06;;;;;;;10.13;1.95;;;13.50;99.90;;;;;;5030484;28;20203;-75
2022/11/02 02:30:39;;;;;;;5.47;2.13;;;13.50;99.90;;;;;;5004569;28;20252;-74
2022/11/02 02:33:11;;;;;;;6.25;2.20;;;13.50;99.90;;;;;;5026497;28;20626;-75
2022/11/02 02:35:42;;;;;;;9.43;2.40;;;13.40;99.90;;;;;;5029626;28;20656;-75
2022/11/02 02:38:14;;;;;;;8.18;2.40;;;13.40;99.90;;;;;;5023772;28;20279;-77
2022/11/02 02:40:47;;;;;;;11.23;2.03;;;13.50;99.90;;;;;;5027028;28;20295;-74
2022/11/02 02:43:20;;;;;;;8.82;1.80;;;13.40;99.90;;;;;;5031157;28;20232;-74
2022/11/02 02:45:53;;;;;;;8.35;3.60;;;13.50;99.90;;;;;;5025459;28;20239;-74
2022/11/02 02:48:22;;;;;;;6.50;2.00;;;13.40;99.90;;;;;;5026057;28;20655;-74
2022/11/02 02:50:50;;;;;;;8.38;3.55;;;13.50;99.90;;;;;;5032141;28;20204;-74
2022/11/02 02:53:21;;;;;;;6.60;1.83;;;13.40;99.90;;;;;;5023799;28;20730;-75
2022/11/02 02:55:50;;;;;;;10.30;4.70;;;13.40;99.90;;;;;;5029817;28;20208;-75
2022/11/02 02:58:22;;;;;;;5.75;2.58;;;13.50;99.90;;;;;;5018965;28;20193;-75
2022/11/02 03:00:51;;;;;;;12.98;3.28;;;13.40;99.90;;;;;;5024553;28;20661;-76
2022/11/02 03:03:22;;;;;;;8.07;2.30;;;13.40;99.90;;;;;;5028781;28;20357;-75
2022/11/02 03:06:05;;;;;;;8.35;2.17;;;13.40;99.90;;;;;;5027289;28;20287;-75
2022/11/02 03:08:32;;;;;;;8.05;2.10;;;13.40;99.90;;;;;;5030718;28;20290;-75
2022/11/02 03:11:07;;;;;;;12.07;2.83;;;13.40;99.90;;;;;;5042628;28;20212;-74
2022/11/02 03:13:47;;;;;;;9.82;2.40;;;13.30;99.90;;;;;;5036269;28;20612;-73
2022/11/02 03:16:28;;;;;;;11.80;3.17;;;13.30;99.90;;;;;;5031195;28;20292;-76
2022/11/02 03:19:05;;;;;;;11.63;3.00;;;13.30;99.90;;;;;;5013254;28;20283;-75
2022/11/02 03:21:39;;;;;;;9.02;1.90;;;13.20;99.90;;;;;;5012601;28;20220;-74
2022/11/02 03:24:14;;;;;;;7.43;2.20;;;13.10;99.90;;;;;;5027538;28;20201;-75
2022/11/02 03:26:47;;;;;;;14.43;2.70;;;13.10;99.90;;;;;;5027202;28;20203;-73
2022/11/02 03:29:21;;;;;;;7.30;1.95;;;13.10;99.90;;;;;;5035044;28;20200;-73
2022/11/02 03:31:55;;;;;;;13.02;2.42;;;13.10;99.90;;;;;;5035381;28;20319;-74
2022/11/02 03:34:26;;;;;;;9.02;2.30;;;13.00;99.90;;;;;;5034986;28;20203;-74
2022/11/02 03:36:59;;;;;;;10.68;2.20;;;13.10;99.90;;;;;;5038799;28;20246;-73
2022/11/02 03:39:32;;;;;;;17.02;4.50;;;13.10;99.90;;;;;;5030917;28;20207;-74
2022/11/02 03:42:02;;;;;;;7.13;2.83;;;13.10;99.90;;;;;;5042778;28;20278;-75
2022/11/02 03:44:33;;;;;;;12.60;2.58;;;13.10;99.90;;;;;;5040918;28;20231;-75
2022/11/02 03:47:01;;;;;;;6.68;1.95;;;13.00;99.90;;;;;;5038059;28;20287;-75
2022/11/02 03:49:29;;;;;;;6.43;1.98;;;13.00;99.90;;;;;;5037794;28;20298;-75
2022/11/02 03:52:01;;;;;;;13.07;2.35;;;13.10;99.90;;;;;;5036650;28;20271;-75
2022/11/02 03:54:39;;;;;;;8.02;2.40;;;13.10;99.90;;;;;;5033700;28;20291;-75
2022/11/02 03:57:09;;;;;;;11.10;2.58;;;13.20;99.90;;;;;;5029253;28;20571;-75
2022/11/02 03:59:37;;;;;;;10.23;2.70;;;13.30;99.90;;;;;;5034651;28;20212;-73
2022/11/02 04:02:04;;;;;;;9.13;2.80;;;13.30;99.90;;;;;;5026759;28;20232;-75
2022/11/02 04:04:31;;;;;;;9.77;3.65;;;13.40;99.90;;;;;;5023302;28;20331;-75
2022/11/02 04:06:58;;;;;;;10.20;3.53;;;13.40;99.90;;;;;;5029973;28;20200;-75
2022/11/02 04:09:25;;;;;;;12.10;3.05;;;13.40;99.90;;;;;;5028707;28;20210;-75
2022/11/02 04:14:39;;;;;;;8.82;2.25;;;13.40;99.90;;;;;;5028014;28;20211;-74
2022/11/02 04:19:52;;;;;;;10.55;3.70;;;13.40;99.90;;;;;;5030352;28;20226;-75
2022/11/02 04:25:17;;;;;;;9.50;1.92;;;13.40;99.90;;;;;;5025052;28;20202;-75
2022/11/02 04:27:45;;;;;;;7.85;2.97;;;13.50;99.90;;;;;;5031511;28;20283;-75
2022/11/02 04:30:15;;;;;;;9.23;3.08;;;13.40;99.90;;;;;;5020243;28;20204;-74
2022/11/02 04:35:28;;;;;;;4.95;1.80;;;13.40;99.90;;;;;;5034917;28;20277;-74
2022/11/02 04:40:40;;;;;;;8.27;2.78;;;13.40;99.90;;;;;;5021614;28;20207;-74
2022/11/02 04:43:07;;;;;;;12.50;3.45;;;13.50;99.90;;;;;;5019135;28;20306;-76
2022/11/02 04:45:35;;;;;;;10.35;2.78;;;13.40;99.90;;;;;;5025606;28;20277;-73
2022/11/02 04:48:04;;;;;;;10.43;2.80;;;13.40;99.90;;;;;;5023379;28;20310;-75
2022/11/02 04:50:31;;;;;;;22.52;2.90;;;13.30;99.90;;;;;;5024575;28;20658;-73
2022/11/02 04:53:00;;;;;;;7.10;2.33;;;13.30;99.90;;;;;;5023207;28;20228;-73
2022/11/02 04:55:27;;;;;;;7.95;2.30;;;13.30;99.90;;;;;;5023694;28;20215;-75
2022/11/02 04:57:55;;;;;;;5.00;1.80;;;13.10;99.90;;;;;;5042967;28;20626;-75
2022/11/02 05:00:23;;;;;;;11.38;2.42;;;13.00;99.90;;;;;;5029588;28;20250;-74
2022/11/02 05:02:51;;;;;;;9.25;2.28;;;12.90;99.90;;;;;;5025749;28;20319;-75
2022/11/02 05:05:19;;;;;;;8.30;3.33;;;12.80;99.90;;;;;;5029804;28;20208;-71
2022/11/02 05:07:46;;;;;;;5.00;1.95;;;12.70;99.90;;;;;;5029416;28;20254;-74
2022/11/02 05:10:13;;;;;;;4.80;2.20;;;12.60;99.90;;;;;;5015133;28;20208;-73
2022/11/02 05:12:39;;;;;;;4.18;2.38;;;12.50;99.90;;;;;;5021772;28;20228;-74
2022/11/02 05:15:07;;;;;;;10.25;2.33;;;12.50;99.90;;;;;;5017729;28;20283;-72
2022/11/02 05:17:34;;;;;;;4.60;1.90;;;12.50;99.90;;;;;;5019398;28;20290;-73
2022/11/02 05:20:03;;;;;;;5.15;2.22;;;12.50;99.90;;;;;;5020907;28;20197;-73
2022/11/02 05:22:31;;;;;;;8.88;2.15;;;12.60;99.90;;;;;;5032331;28;20232;-73
2022/11/02 05:24:58;;;;;;;6.82;3.50;;;12.60;99.90;;;;;;5033613;28;20196;-73
2022/11/02 05:27:25;;;;;;;13.00;3.25;;;12.60;99.90;;;;;;5026814;28;20203;-74
2022/11/02 05:29:52;;;;;;;7.68;2.42;;;12.50;99.90;;;;;;5026515;28;20197;-75
2022/11/02 05:32:18;;;;;;;9.10;3.97;;;12.30;99.90;;;;;;5026516;28;20311;-73
2022/11/02 05:34:45;;;;;;;9.82;3.60;;;12.40;99.90;;;;;;5030352;28;20325;-73
2022/11/02 05:37:14;;;;;;;10.02;3.75;;;12.20;99.90;;;;;;5027860;28;20232;-73
2022/11/02 05:39:43;;;;;;;17.05;4.72;;;12.20;99.90;;;;;;5018286;28;20231;-72
2022/11/02 05:42:09;;;;;;;13.00;5.15;;;12.20;99.90;;;;;;5023895;28;20228;-73
2022/11/02 05:44:38;;;;;;;10.48;3.50;;;12.20;99.90;;;;;;5017728;28;20231;-76
2022/11/02 05:47:06;;;;;;;11.63;3.80;;;12.20;99.90;;;;;;5016883;28;20303;-74
2022/11/02 05:49:32;;;;;;;13.77;3.75;;;12.10;99.90;;;;;;5021768;28;20227;-74
2022/11/02 05:52:00;;;;;;;10.07;3.50;;;11.90;99.90;;;;;;5027033;28;20232;-73
2022/11/02 05:54:28;;;;;;;9.68;3.95;;;11.90;99.90;;;;;;5020496;28;20250;-74
2022/11/02 05:56:56;;;;;;;12.07;3.78;;;11.80;99.90;;;;;;5029773;28;20303;-76
2022/11/02 05:59:23;;;;;;;14.50;3.53;;;11.90;99.90;;;;;;5024352;28;20290;-73
2022/11/02 06:01:50;;;;;;;8.50;3.05;;;11.80;99.90;;;;;;5030913;28;20310;-73
2022/11/02 06:04:17;;;;;;;8.95;3.63;;;11.80;99.90;;;;;;5029908;28;20258;-75
2022/11/02 06:06:44;;;;;;;9.65;3.75;;;11.70;99.90;;;;;;5024473;28;20311;-75
2022/11/02 06:09:12;;;;;;;9.82;3.33;;;11.70;99.90;;;;;;5015722;28;20211;-73
2022/11/02 06:11:40;;;;;;;10.95;3.45;;;11.70;99.90;;;;;;5022029;28;20316;-74
2022/11/02 06:14:07;;;;;;;13.73;3.00;;;11.70;99.90;;;;;;5026237;28;20217;-74
2022/11/02 06:16:34;;;;;;;6.00;3.33;;;11.70;99.90;;;;;;5031989;28;20219;-75
2022/11/02 06:19:01;;;;;;;10.38;3.22;;;11.60;99.90;;;;;;5031227;28;20203;-74
2022/11/02 06:21:28;;;;;;;8.98;3.65;;;11.60;99.90;;;;;;5025077;28;20277;-74
2022/11/02 06:23:57;;;;;;;9.52;2.65;;;11.60;99.90;;;;;;5031422;28;20246;-74
2022/11/02 06:26:24;;;;;;;6.90;2.53;;;11.70;99.90;;;;;;5021987;28;20657;-73
2022/11/02 06:28:53;;;;;;;12.35;3.63;;;11.70;99.90;;;;;;5023863;28;20743;-76
2022/11/02 06:31:20;;;;;;;6.40;2.45;;;11.70;99.90;;;;;;5030208;28;20205;-74
2022/11/02 06:33:47;;;;;;;5.35;2.35;;;11.70;99.90;;;;;;5029742;28;20259;-74
2022/11/02 06:36:14;;;;;;;11.02;3.47;;;11.80;99.90;;;;;;5036730;28;20218;-73
2022/11/02 06:38:41;;;;;;;13.52;2.63;;;11.80;99.90;;;;;;5024321;28;20284;-74
2022/11/02 06:41:09;;;;;;;7.85;2.38;;;11.80;99.90;;;;;;5032515;28;20202;-74
2022/11/02 06:43:37;;;;;;;6.20;2.50;;;11.80;99.90;;;;;;5038215;28;20279;-74
2022/11/02 06:46:05;;;;;;;16.65;3.47;;;11.80;99.90;;;;;;5030031;28;20282;-73
2022/11/02 06:48:33;;;;;;;13.65;2.40;;;11.90;99.90;;;;;;5018670;28;20225;-74
2022/11/02 06:51:00;;;;;;;5.03;2.47;;;11.90;99.90;;;;;;5026714;28;20582;-73
2022/11/02 06:53:27;;;;;;;8.73;2.55;;;12.00;99.90;;;;;;5027617;28;20224;-75
2022/11/02 06:55:54;;;;;;;10.10;3.05;;;12.00;99.90;;;;;;5031525;28;20734;-73
2022/11/02 06:58:22;;;;;;;22.35;3.67;;;12.10;99.90;;;;;;5029715;28;20319;-74
2022/11/02 07:00:50;;;;;;;12.18;2.90;;;12.30;99.90;;;;;;5022490;28;20199;-72
2022/11/02 07:03:19;;;;;;;6.97;2.10;;;12.60;99.90;;;;;;5017548;28;20311;-74
2022/11/02 07:05:51;;;;;;;13.27;2.22;;;12.80;99.90;;;;;;5030926;28;20616;-71
2022/11/02 07:08:18;;;;;;;8.65;2.67;;;13.00;99.90;;;;;;5020618;28;20204;-75
2022/11/02 07:10:45;;;;;;;5.53;2.10;;;13.00;99.90;;;;;;5017975;28;20200;-73
2022/11/02 07:13:12;;;;;;;8.32;1.95;;;13.00;99.90;;;;;;5022333;28;20240;-75
2022/11/02 07:15:39;;;;;;;8.95;2.55;;;13.20;99.90;;;;;;5031430;28;20251;-73
2022/11/02 07:18:07;;;;;;;20.45;4.03;;;13.50;99.90;;;;;;5024672;28;20628;-74
2022/11/02 07:20:35;;;;;;;8.10;2.10;;;13.80;99.90;;;;;;5021271;28;20671;-73
2022/11/02 07:23:04;;;;;;;10.80;3.70;;;13.80;99.90;;;;;;5028422;28;20280;-74
2022/11/02 07:25:32;;;;;;;7.13;2.55;;;13.90;99.90;;;;;;5032303;28;20292;-73
2022/11/02 07:28:01;;;;;;;6.38;2.30;;;14.00;99.90;;;;;;5032543;28;20292;-73
2022/11/02 07:30:29;;;;;;;18.15;2.30;;;14.40;99.90;;;;;;5024021;28;20244;-73
2022/11/02 07:32:56;;;;;;;10.27;2.92;;;14.70;99.90;;;;;;5024638;28;20260;-75
2022/11/02 07:35:23;;;;;;;5.90;1.88;;;15.10;99.90;;;;;;5032293;28;20720;-76
2022/11/02 07:37:59;;;;;;;11.87;2.37;;;15.30;99.90;;;;;;5034139;28;20214;-75
2022/11/02 07:40:27;;;;;;;7.43;1.80;;;15.40;99.90;;;;;;5014788;28;20791;-71
2022/11/02 07:42:54;;;;;;;10.47;2.50;;;15.80;99.90;;;;;;5023100;28;20492;-73
2022/11/02 07:45:22;;;;;;;9.17;1.93;;;16.10;99.90;;;;;;5025031;28;20482;-74
2022/11/02 07:47:50;;;;;;;8.50;2.63;;;16.20;99.90;;;;;;5018102;28;20480;-75
2022/11/02 07:50:20;;;;;;;6.87;2.77;;;16.30;99.90;;;;;;5028741;28;20503;-75
2022/11/02 07:52:48;;;;;;;3.33;1.80;;;16.50;99.90;;;;;;5025645;28;20974;-76
2022/11/02 07:55:19;;;;;;;10.73;2.60;;;16.00;99.90;;;;;;5029496;28;20443;-77
2022/11/02 07:57:53;;;;;;;9.20;2.63;;;16.40;99.90;;;;;;5020897;28;20454;-75
2022/11/02 08:00:21;;;;;;;5.63;1.90;;;16.30;99.90;;;;;;5022660;28;20451;-74
2022/11/02 08:02:47;;;;;;;10.90;3.27;;;16.60;99.90;;;;;;5027505;28;20479;-77
2022/11/02 08:05:15;;;;;;;6.18;2.90;;;15.50;99.90;;;;;;5031627;28;20557;-76
2022/11/02 08:07:42;;;;;;;6.00;2.03;;;14.80;99.90;;;;;;5031556;28;20734;-74
2022/11/02 08:10:09;;;;;;;10.68;2.72;;;14.20;99.90;;;;;;5020768;28;20807;-73
2022/11/02 08:12:38;;;;;;;7.40;2.13;;;14.00;99.90;;;;;;5022071;28;20249;-74
2022/11/02 08:15:06;;;;;;;9.05;2.60;;;13.90;99.90;;;;;;5029986;28;20200;-74
2022/11/02 08:17:33;;;;;;;7.85;3.53;;;13.80;99.90;;;;;;5026860;28;20638;-76
2022/11/02 08:20:00;;;;;;;7.13;2.33;;;13.80;99.90;;;;;;5026055;28;20525;-75
2022/11/02 08:22:29;;;;;;;12.45;3.00;;;13.60;99.90;;;;;;5024487;28;20232;-74
2022/11/02 08:24:56;;;;;;;8.85;2.70;;;13.50;99.90;;;;;;5022096;28;20227;-76
2022/11/02 08:27:23;;;;;;;8.25;2.88;;;13.70;99.90;;;;;;5026823;28;20208;-76
2022/11/02 08:29:51;;;;;;;7.32;2.13;;;14.00;99.90;;;;;;5036128;28;20206;-76
2022/11/02 08:32:18;;;;;;;4.87;2.63;;;14.90;99.90;;;;;;5039455;28;20231;-77
2022/11/02 08:34:45;;;;;;;5.63;2.47;;;15.80;99.90;;;;;;5034382;28;20502;-75
2022/11/02 08:37:12;;;;;;;7.43;2.40;;;15.70;99.90;;;;;;5031244;28;20446;-76
2022/11/02 08:39:39;;;;;;;6.20;3.00;;;16.20;99.90;;;;;;5022343;28;20481;-76
2022/11/02 08:42:06;;;;;;;8.13;3.27;;;16.80;99.90;;;;;;5025637;28;20550;-76
2022/11/02 08:44:33;;;;;;;9.83;3.03;;;17.50;99.90;;;;;;5028651;28;20575;-76
2022/11/02 08:47:04;;;;;;;6.30;2.30;;;17.10;99.90;;;;;;5032139;28;20537;-75
2022/11/02 08:49:30;;;;;;;8.37;2.07;;;16.80;99.90;;;;;;5028747;28;20915;-75
2022/11/02 08:51:59;;;;;;;10.83;2.80;;;17.60;99.90;;;;;;5031174;28;21008;-76
2022/11/02 08:54:25;;;;;;;9.87;1.43;;;17.10;99.90;;;;;;5029434;28;20447;-76
2022/11/02 08:56:52;;;;;;;6.40;2.10;;;17.10;99.90;;;;;;5028333;28;21338;-76
2022/11/02 08:59:19;;;;;;;7.87;3.10;;;17.10;99.90;;;;;;5024813;28;20559;-77
2022/11/02 09:01:46;;;;;;;9.40;2.50;;;17.00;99.90;;;;;;5027518;28;20573;-76
2022/11/02 09:04:15;;;;;;;8.13;2.47;;;17.20;99.90;;;;;;5036155;28;20489;-77
2022/11/02 09:06:42;;;;;;;7.80;2.63;;;17.30;99.90;;;;;;5035163;28;20447;-75
2022/11/02 09:09:09;;;;;;;5.33;2.60;;;16.60;99.90;;;;;;5030085;28;20815;-75
2022/11/02 09:11:36;;;;;;;10.17;2.20;;;15.60;99.90;;;;;;5026378;28;20550;-76
2022/11/02 09:14:03;;;;;;;11.48;3.30;;;15.40;99.90;;;;;;5019458;28;20495;-76
2022/11/02 09:16:29;;;;;;;12.32;3.53;;;15.20;99.90;;;;;;5024823;28;20207;-77
2022/11/02 09:18:57;;;;;;;7.95;2.40;;;15.20;99.90;;;;;;5038001;28;20225;-75
2022/11/02 09:21:25;;;;;;;13.70;4.07;;;15.20;99.90;;;;;;5035531;28;20592;-78
2022/11/02 09:23:52;;;;;;;5.55;2.17;;;15.50;99.90;;;;;;5030803;28;20255;-76
2022/11/02 09:26:19;;;;;;;8.13;2.40;;;15.70;99.90;;;;;;5026821;28;20235;-77
2022/11/02 09:28:46;;;;;;;5.03;2.47;;;15.40;99.90;;;;;;5033514;28;20289;-76
2022/11/02 09:31:12;;;;;;;10.57;3.15;;;15.40;99.90;;;;;;5026088;28;20294;-75
2022/11/02 09:33:40;;;;;;;6.23;2.33;;;15.00;99.90;;;;;;5019727;28;20237;-77
2022/11/02 09:36:07;;;;;;;19.55;3.53;;;14.60;99.90;;;;;;5031688;28;20440;-75
2022/11/02 09:38:38;;;;;;;7.07;3.10;;;14.50;99.90;;;;;;5025766;28;20243;-77
2022/11/02 09:41:13;;;;;;;12.13;3.33;;;14.50;99.90;;;;;;5025800;28;20216;-77
2022/11/02 09:44:00;;;;;;;6.68;2.88;;;14.30;99.90;;;;;;5012465;28;20229;-75
2022/11/02 09:46:30;;;;;;;8.93;2.30;;;14.10;99.90;;;;;;5002037;28;20226;-76
2022/11/02 09:49:00;;;;;;;5.63;2.17;;;13.90;99.90;;;;;;5034436;28;20201;-77
2022/11/02 09:51:33;;;;;;;9.45;2.50;;;14.00;99.90;;;;;;5020433;28;20675;-78
2022/11/02 09:54:08;;;;;;;8.43;2.40;;;14.10;99.90;;;;;;5017257;28;20197;-77
2022/11/02 09:56:35;;;;;;;8.73;5.47;;;14.30;99.90;;;;;;5026460;28;20250;-76
2022/11/02 09:59:11;;;;;;;6.00;3.05;;;14.30;99.90;;;;;;5024557;28;20201;-77
2022/11/02 10:01:50;;;;;;;6.15;2.83;;;14.40;99.90;;;;;;5023491;28;20232;-76
2022/11/02 10:04:39;;;;;;;5.57;1.80;;;14.30;99.90;;;;;;5023377;28;20227;-75
2022/11/02 10:07:14;;;;;;;12.77;2.10;;;14.20;99.90;;;;;;5021675;28;20314;-76
2022/11/02 10:09:51;;;;;;;7.45;1.98;;;14.10;99.90;;;;;;5029865;28;20203;-79
2022/11/02 10:12:26;;;;;;;6.47;2.08;;;14.10;99.90;;;;;;5014228;28;20232;-77
2022/11/02 10:15:03;;;;;;;7.45;2.13;;;14.10;99.90;;;;;;5016862;28;20217;-76
2022/11/02 10:17:34;;;;;;;6.65;1.50;;;14.60;99.90;;;;;;5037742;28;20284;-78
2022/11/02 10:20:07;;;;;;;5.80;2.10;;;15.00;99.90;;;;;;5029224;28;20615;-77
2022/11/02 10:22:39;;;;;;;9.35;1.92;;;15.60;99.90;;;;;;5033927;28;20312;-76
2022/11/02 10:25:14;;;;;;;8.10;2.30;;;15.50;99.90;;;;;;5026790;28;20257;-75
2022/11/02 10:27:46;;;;;;;5.10;1.70;;;15.50;99.90;;;;;;5024880;28;20478;-74
2022/11/02 10:30:15;;;;;;;5.13;2.88;;;15.50;99.90;;;;;;5024039;28;20512;-76
2022/11/02 10:32:44;;;;;;;6.82;2.22;;;15.50;99.90;;;;;;5031059;28;20304;-77
2022/11/02 10:35:18;;;;;;;8.10;4.00;;;15.50;99.90;;;;;;5029004;28;20205;-76
2022/11/02 10:38:03;;;;;;;6.53;2.45;;;15.40;99.90;;;;;;5030000;28;20308;-75
2022/11/02 10:40:48;;;;;;;4.90;2.30;;;15.60;99.90;;;;;;5023766;28;20205;-75
2022/11/02 10:43:28;;;;;;;5.90;2.10;;;15.80;99.90;;;;;;5030417;28;20726;-76
2022/11/02 10:46:17;;;;;;;7.72;2.28;;;15.50;99.90;;;;;;5030041;28;20816;-77
2022/11/02 10:48:55;;;;;;;10.15;2.50;;;15.20;99.90;;;;;;5023318;28;20216;-76
2022/11/02 10:51:23;;;;;;;7.85;2.40;;;15.10;99.90;;;;;;5028919;28;20216;-75
2022/11/02 10:53:52;;;;;;;5.85;1.85;;;15.00;99.90;;;;;;5020346;28;20700;-79
2022/11/02 10:56:22;;;;;;;7.65;1.85;;;15.20;99.90;;;;;;5027050;28;20615;-77
2022/11/02 10:59:00;;;;;;;7.15;1.60;;;14.90;99.90;;;;;;5028612;28;20235;-77
2022/11/02 11:01:29;;;;;;;5.05;1.70;;;14.90;99.90;;;;;;5024285;28;20213;-76
2022/11/02 11:03:58;;;;;;;4.60;1.13;;;14.70;99.90;;;;;;5039155;28;20280;-77
2022/11/02 11:06:29;;;;;;;8.43;1.98;;;14.70;99.90;;;;;;5034873;28;20252;-77
2022/11/02 11:09:01;;;;;;;6.50;1.90;;;14.60;99.90;;;;;;5034119;28;20209;-76
2022/11/02 11:11:32;;;;;;;9.73;2.00;;;14.70;99.90;;;;;;5019302;28;20775;-75
2022/11/02 11:14:02;;;;;;;6.63;1.80;;;14.70;99.90;;;;;;5029410;28;20279;-75
2022/11/02 11:16:40;;;;;;;6.18;2.55;;;14.60;99.90;;;;;;5025721;28;20209;-76
2022/11/02 11:19:22;;;;;;;7.40;1.60;;;14.80;99.90;;;;;;5030747;28;20333;-77
2022/11/02 11:21:49;;;;;;;4.00;1.40;;;14.90;99.90;;;;;;5025343;28;20312;-76
2022/11/02 11:24:26;;;;;;;3.80;1.35;;;14.90;99.90;;;;;;5020339;28;20226;-76
2022/11/02 11:27:13;;;;;;;11.48;2.20;;;15.00;99.90;;;;;;5026167;28;20306;-77
2022/11/02 11:29:46;;;;;;;6.30;1.30;;;14.90;99.90;;;;;;5028569;28;20251;-75
2022/11/02 11:32:16;;;;;;;4.50;1.83;;;14.70;99.90;;;;;;5020264;28;20236;-77
2022/11/02 11:34:46;;;;;;;3.20;1.10;;;14.60;99.90;;;;;;5019431;28;20210;-77
2022/11/02 11:37:16;;;;;;;3.22;1.92;;;14.50;99.90;;;;;;5028892;28;20303;-78
2022/11/02 11:39:45;;;;;;;3.45;1.42;;;14.50;99.90;;;;;;5031300;28;20208;-76
2022/11/02 11:42:18;;;;;;;6.55;2.05;;;14.60;99.90;;;;;;5025602;28;20252;-77
2022/11/02 11:44:50;;;;;;;7.70;3.05;;;14.80;99.90;;;;;;5027804;28;20263;-75
2022/11/02 11:47:29;;;;;;;9.82;2.05;;;14.70;99.90;;;;;;5032958;28;20571;-75
2022/11/02 11:49:59;;;;;;;9.90;1.65;;;15.00;99.90;;;;;;5025287;28;20303;-76
2022/11/02 11:52:29;;;;;;;11.10;2.50;;;15.10;99.90;;;;;;5026390;28;20236;-75
2022/11/02 11:54:57;;;;;;;5.82;1.50;;;15.00;99.90;;;;;;5028904;28;20898;-76
2022/11/02 11:57:30;;;;;;;6.65;1.75;;;15.10;99.90;;;;;;5038422;28;20251;-75
2022/11/02 12:00:00;;;;;;;5.85;1.70;;;15.10;99.90;;;;;;5044749;28;20256;-75
2022/11/02 12:02:29;;;;;;;4.13;1.50;;;15.00;99.90;;;;;;5024310;28;20224;-75
2022/11/02 12:05:13;;;;;;;4.63;1.60;;;14.80;99.90;;;;;;5023856;28;20229;-76
2022/11/02 12:08:01;;;;;;;4.50;2.83;;;14.60;99.90;;;;;;5004250;28;20210;-74
2022/11/02 12:10:41;;;;;;;5.75;1.80;;;14.50;99.90;;;;;;5027881;28;20233;-76
2022/11/02 12:13:20;;;;;;;6.38;1.75;;;14.30;99.90;;;;;;5009915;28;20255;-76
2022/11/02 12:16:04;;;;;;;9.88;2.63;;;14.20;99.90;;;;;;5009755;28;20196;-77
2022/11/02 12:18:59;;;;;;;4.70;1.60;;;14.40;99.90;;;;;;5007320;28;20667;-76
2022/11/02 12:21:38;;;;;;;7.45;1.80;;;14.60;99.90;;;;;;5028711;28;20200;-75
2022/11/02 12:24:30;;;;;;;7.80;1.67;;;14.70;99.90;;;;;;5009205;28;20202;-76
2022/11/02 12:27:08;;;;;;;7.50;1.60;;;14.80;99.90;;;;;;5015982;28;20281;-76
2022/11/02 12:30:09;;;;;;;9.85;1.85;;;15.00;99.90;;;;;;5024468;28;20273;-76
2022/11/02 12:32:54;;;;;;;7.32;1.55;;;15.30;99.90;;;;;;4983496;28;20228;-75
2022/11/02 12:35:43;;;;;;;4.00;2.28;;;15.30;99.90;;;;;;5027710;28;20229;-76
2022/11/02 12:38:28;;;;;;;3.30;1.23;;;15.10;99.90;;;;;;5031558;28;20201;-74
2022/11/02 12:41:03;;;;;;;11.40;1.73;;;15.10;99.90;;;;;;5003882;28;20317;-76
2022/11/02 12:43:41;;;;;;;7.57;2.15;;;14.90;99.90;;;;;;5018562;28;20590;-76
2022/11/02 12:46:25;;;;;;;11.60;2.00;;;14.80;99.90;;;;;;5019259;28;20221;-76
2022/11/02 12:49:05;;;;;;;14.90;2.70;;;15.00;99.90;;;;;;5002604;28;20256;-77
2022/11/02 12:51:36;;;;;;;5.15;1.52;;;15.00;99.90;;;;;;5001535;28;20314;-76
2022/11/02 12:54:11;;;;;;;5.20;1.67;;;15.10;99.90;;;;;;5022067;28;20203;-76
2022/11/02 12:56:45;;;;;;;4.30;1.20;;;15.10;99.90;;;;;;5027358;28;20202;-78
2022/11/02 12:59:17;;;;;;;6.93;2.08;;;15.20;99.90;;;;;;5018333;28;20289;-75
2022/11/02 13:01:51;;;;;;;6.50;2.20;;;15.20;99.90;;;;;;5024570;28;20225;-75
2022/11/02 13:04:22;;;;;;;5.60;1.40;;;15.10;99.90;;;;;;5020789;28;20244;-75
2022/11/02 13:06:52;;;;;;;6.60;1.70;;;15.10;99.90;;;;;;5025771;28;20452;-75
2022/11/02 13:09:25;;;;;;;3.28;1.73;;;14.90;99.90;;;;;;5026405;28;20283;-77
2022/11/02 13:11:59;;;;;;;9.98;1.80;;;14.90;99.90;;;;;;5016973;28;20261;-77
2022/11/02 13:14:31;;;;;;;5.80;1.95;;;14.90;99.90;;;;;;5021389;28;20208;-76